createdAt,value
2018-06-11T00:00:13.254Z,20.90
2018-06-11T00:02:53.908Z,20.90
2018-06-11T00:05:22.739Z,20.90
2018-06-11T00:10:20.050Z,20.90
2018-06-11T00:12:48.785Z,20.80
2018-06-11T00:15:35.427Z,20.80
2018-06-11T00:18:21.152Z,20.70
2018-06-11T00:21:10.065Z,20.70
2018-06-11T00:23:59.272Z,20.70
2018-06-11T00:26:49.036Z,20.70
2018-06-11T00:29:39.060Z,20.60
2018-06-11T00:32:08.119Z,20.60
2018-06-11T00:34:36.904Z,20.60
2018-06-11T00:37:05.693Z,20.60
2018-06-11T00:39:35.129Z,20.50
2018-06-11T00:42:03.959Z,20.50
2018-06-11T00:44:33.015Z,20.40
2018-06-11T00:47:01.950Z,20.40
2018-06-11T00:49:30.753Z,20.30
2018-06-11T00:51:59.853Z,20.30
2018-06-11T00:54:29.132Z,20.40
2018-06-11T00:56:57.944Z,20.40
2018-06-11T00:59:26.964Z,20.40
2018-06-11T01:02:03.281Z,20.40
2018-06-11T01:04:49.367Z,20.30
2018-06-11T01:07:25.246Z,20.30
2018-06-11T01:09:55.148Z,20.30
2018-06-11T01:12:23.942Z,20.30
2018-06-11T01:14:52.740Z,20.20
2018-06-11T01:17:21.542Z,20.20
2018-06-11T01:19:50.486Z,20.10
2018-06-11T01:22:19.328Z,20.10
2018-06-11T01:24:48.111Z,20.10
2018-06-11T01:27:16.861Z,20.10
2018-06-11T01:29:45.616Z,20.10
2018-06-11T01:32:14.440Z,20.10
2018-06-11T01:34:43.858Z,20.00
2018-06-11T01:37:12.782Z,20.00
2018-06-11T01:39:41.646Z,20.00
2018-06-11T01:42:10.407Z,20.00
2018-06-11T01:44:39.186Z,19.90
2018-06-11T01:47:07.956Z,19.90
2018-06-11T01:49:36.892Z,19.90
2018-06-11T01:52:05.610Z,19.90
2018-06-11T01:54:34.436Z,19.80
2018-06-11T01:57:03.192Z,19.80
2018-06-11T01:59:31.966Z,19.80
2018-06-11T02:02:00.804Z,19.80
2018-06-11T02:04:29.706Z,19.80
2018-06-11T02:06:58.516Z,19.80
2018-06-11T02:09:27.444Z,19.80
2018-06-11T02:11:56.388Z,19.80
2018-06-11T02:14:25.170Z,19.80
2018-06-11T02:16:54.002Z,19.80
2018-06-11T02:19:22.970Z,19.80
2018-06-11T02:21:51.802Z,19.80
2018-06-11T02:24:20.583Z,19.80
2018-06-11T02:26:49.367Z,19.80
2018-06-11T02:29:18.232Z,19.80
2018-06-11T02:31:47.177Z,19.90
2018-06-11T02:34:15.956Z,19.90
2018-06-11T02:36:44.702Z,19.90
2018-06-11T02:39:13.355Z,19.90
2018-06-11T02:41:42.158Z,19.90
2018-06-11T02:44:11.019Z,19.90
2018-06-11T02:46:39.874Z,19.90
2018-06-11T02:49:09.072Z,19.90
2018-06-11T02:51:38.108Z,19.90
2018-06-11T02:54:07.529Z,19.80
2018-06-11T02:56:36.336Z,19.80
2018-06-11T02:59:05.283Z,19.70
2018-06-11T03:01:34.044Z,19.70
2018-06-11T03:04:02.929Z,19.70
2018-06-11T03:06:31.692Z,19.70
2018-06-11T03:09:00.539Z,19.70
2018-06-11T03:11:29.280Z,19.60
2018-06-11T03:13:58.208Z,19.60
2018-06-11T03:16:27.184Z,19.60
2018-06-11T03:18:55.968Z,19.60
2018-06-11T03:21:24.831Z,19.50
2018-06-11T03:23:53.610Z,19.60
2018-06-11T03:26:22.416Z,19.60
2018-06-11T03:28:52.272Z,19.70
2018-06-11T03:31:21.030Z,19.70
2018-06-11T03:33:49.826Z,19.70
2018-06-11T03:36:18.636Z,19.70
2018-06-11T03:38:47.616Z,19.70
2018-06-11T03:41:16.592Z,19.70
2018-06-11T03:43:45.493Z,19.70
2018-06-11T03:46:14.294Z,19.80
2018-06-11T03:48:43.716Z,19.80
2018-06-11T03:51:12.476Z,19.80
2018-06-11T03:53:41.235Z,19.80
2018-06-11T03:56:10.266Z,19.80
2018-06-11T04:03:36.376Z,19.90
2018-06-11T04:06:05.394Z,20.00
2018-06-11T04:08:34.438Z,20.00
2018-06-11T04:11:03.384Z,20.00
2018-06-11T04:13:32.156Z,20.10
2018-06-11T04:16:04.860Z,20.20
2018-06-11T04:18:33.684Z,20.30
2018-06-11T04:21:02.532Z,20.40
2018-06-11T04:23:31.328Z,20.50
2018-06-11T04:26:00.321Z,20.60
2018-06-11T04:28:29.229Z,20.70
2018-06-11T04:30:58.148Z,20.90
2018-06-11T04:33:26.960Z,21.00
2018-06-11T04:35:55.732Z,21.10
2018-06-11T04:38:24.554Z,21.30
2018-06-11T04:40:53.431Z,21.50
2018-06-11T04:43:22.298Z,21.70
2018-06-11T04:45:52.694Z,21.90
2018-06-11T04:48:21.556Z,22.50
2018-06-11T04:50:50.366Z,23.10
2018-06-11T04:53:19.188Z,23.80
2018-06-11T04:55:48.028Z,24.20
2018-06-11T04:58:16.854Z,24.20
2018-06-11T05:00:45.687Z,24.20
2018-06-11T05:03:14.397Z,23.80
2018-06-11T05:05:43.196Z,23.70
2018-06-11T05:08:12.059Z,23.70
2018-06-11T05:10:40.978Z,23.70
2018-06-11T05:13:10.077Z,23.70
2018-06-11T05:15:38.942Z,23.80
2018-06-11T05:18:07.916Z,24.20
2018-06-11T05:20:36.751Z,24.60
2018-06-11T05:23:05.568Z,24.60
2018-06-11T05:25:34.448Z,24.40
2018-06-11T05:28:03.320Z,24.10
2018-06-11T05:30:32.069Z,24.00
2018-06-11T05:33:00.992Z,23.90
2018-06-11T05:35:29.801Z,23.70
2018-06-11T05:37:59.181Z,23.90
2018-06-11T05:40:28.157Z,25.10
2018-06-11T05:42:57.511Z,26.40
2018-06-11T05:45:26.375Z,27.30
2018-06-11T05:47:55.204Z,28.00
2018-06-11T05:50:24.067Z,28.80
2018-06-11T05:53:00.795Z,29.90
2018-06-11T05:55:29.755Z,29.80
2018-06-11T05:57:58.625Z,30.10
2018-06-11T06:00:36.032Z,30.80
2018-06-11T06:03:04.808Z,31.80
2018-06-11T06:05:33.735Z,32.50
2018-06-11T06:08:02.809Z,32.80
2018-06-11T06:10:50.150Z,33.40
2018-06-11T06:13:19.632Z,33.40
2018-06-11T06:15:48.473Z,33.20
2018-06-11T06:18:17.323Z,33.20
2018-06-11T06:20:49.477Z,33.20
2018-06-11T06:23:18.400Z,33.80
2018-06-11T06:25:53.466Z,34.60
2018-06-11T06:28:24.057Z,35.10
2018-06-11T06:31:02.158Z,35.10
2018-06-11T06:33:49.149Z,34.90
2018-06-11T06:36:21.903Z,34.00
2018-06-11T06:39:00.553Z,32.90
2018-06-11T06:41:37.145Z,32.30
2018-06-11T06:44:13.525Z,32.70
2018-06-11T06:46:52.347Z,33.40
2018-06-11T06:49:21.175Z,34.00
2018-06-11T06:52:13.507Z,34.80
2018-06-11T06:54:42.419Z,35.20
2018-06-11T06:57:12.009Z,35.60
2018-06-11T06:59:50.607Z,35.40
2018-06-11T07:02:24.028Z,35.10
2018-06-11T07:04:59.296Z,34.60
2018-06-11T07:07:28.137Z,33.90
2018-06-11T07:09:56.963Z,33.30
2018-06-11T07:12:25.789Z,32.10
2018-06-11T07:15:04.885Z,31.40
2018-06-11T07:17:36.303Z,31.10
2018-06-11T07:20:23.017Z,30.70
2018-06-11T07:23:11.493Z,30.60
2018-06-11T07:25:45.670Z,30.30
2018-06-11T07:28:17.997Z,29.80
2018-06-11T07:30:52.306Z,29.80
2018-06-11T07:33:21.533Z,29.80
2018-06-11T07:35:51.889Z,29.90
2018-06-11T07:38:22.285Z,30.00
2018-06-11T07:41:13.482Z,29.90
2018-06-11T07:43:42.301Z,29.80
2018-06-11T07:46:11.128Z,29.80
2018-06-11T07:48:39.833Z,29.70
2018-06-11T07:58:47.200Z,29.90
